Tuesday, June 19, 2018, 3:54 PM EDT
Back to Local

KSWF, Newburgh / Stewart

Location: New Windsor, NY, United States Lat: 41.5
Local Time: 3:54 PM EDT (19:54 GMT) Lon: -74.1
Time Zone: US/Eastern Elev: 492 ft

Show me the last for .
Show Decoded

2018-06-19 14:45 METAR KSWF 191845Z 20SM FEW150 28/15 A2983 =
2018-06-19 13:45 METAR KSWF 191745Z 02010KT 20SM FEW150 28/15 A2983 =
2018-06-19 12:45 METAR KSWF 191645Z 02010KT 20SM SCT060 28/16 A2984 =
2018-06-19 11:45 METAR KSWF 191545Z 01008KT 20SM SCT060 28/16 A2984 =
2018-06-19 10:45 METAR KSWF 191445Z 01008KT 20SM SCT060 26/18 A2984 =
2018-06-19 09:45 METAR KSWF 191345Z 02010KT 20SM SCT020 BKN060 25/22 A2983 =
2018-06-19 08:45 METAR KSWF 191245Z 05010KT 15SM SCT020 BKN060 25/22 A2982 =
2018-06-19 07:45 METAR KSWF 191145Z 30006KT 15SM FEW030 SCT080 24/22 A2980 =
2018-06-19 06:45 METAR KSWF 191045Z 30008KT 15SM BKN060 23/22 A2978 =
2018-06-19 04:45 METAR KSWF 190845Z 27010KT 10SM BKN060 23/23 A2974 =
2018-06-19 03:45 METAR KSWF 190745Z 27010KT 10SM SKC 23/23 A2974 =
2018-06-19 02:45 METAR KSWF 190645Z 27010KT 5SM -RA BR OVC050 23/23 A2974 =
2018-06-19 02:05 METAR KSWF 190605Z 00000KT 5SM -RA BR OVC050 23/23 A2975 =
2018-06-19 01:45 METAR KSWF 190545Z 00000KT 10SM -RA OVC050 23/23 A2975 =
2018-06-19 00:45 METAR KSWF 190445Z 00000KT 10SM -RA BKN050 24/23 A2977 =
2018-06-18 23:45 METAR KSWF 190345Z 00000KT 10SM BKN070 24/23 A2977 =
2018-06-18 22:45 METAR KSWF 190245Z 25006KT 10SM -DZ BKN070 25/24 A2981 =
2018-06-18 21:45 METAR KSWF 190145Z 00000KT 10SM BKN120 24/24 A2981 =
2018-06-18 20:45 METAR KSWF 190045Z 00000KT 10SM BKN120 23/23 A2980 =
2018-06-18 19:45 METAR KSWF 182345Z 31006KT 10SM SCT035 BKN120 24/23 A2981 RMK TSB2226E30 =
2018-06-18 19:05 METAR KSWF 182305Z 29015KT 5SM -TSRA BKN035 OVC080 23/22 A2981 RMK OCNL LTG
                 TSB26 TS S MOV SE =
2018-06-18 18:45 METAR KSWF 182245Z 25020G30KT 1/2SM +TSRA BKN040 OVC080 30/22 A2982 RMK FREQ LTG
                 TSB26 TS OHD MOV SE =
2018-06-18 18:30 METAR KSWF 182230Z 24015KT 10SM -TSRA BKN080 31/24 A2979 RMK OCNL LTG TSB26 TS
                 NW MOV SSE =
2018-06-18 17:45 METAR KSWF 182145Z 26015KT 15SM FEW040 BKN080 32/24 A2980 =
2018-06-18 16:45 METAR KSWF 182045Z 27015KT 15SM SCT040 BKN080 33/23 A2982 =

Support USWX by starting your Amazon purchase here.